Time;durP1;ratioP1;P1;durP2;ratioP2;P2;SDS_P1;SDS_P2;PMS_P1;PMS_P2;Temp;Humidity;BMP_temperature;BMP_pressure;BME280_temperature;BME280_humidity;BME280_pressure;Samples;Min_cycle;Max_cycle;Signal;HPM_P1;HPM_P2
2022/06/28 00:01:11;;;;;;;841.08;110.40;;;;;;;28.82;43.50;101400.97;4151446;28;20448;-67
2022/06/28 00:03:12;;;;;;;1732.47;285.75;;;;;;;28.81;43.57;101405.75;4151441;28;20046;-67
2022/06/28 00:05:13;;;;;;;1402.22;169.43;;;;;;;28.83;43.50;101413.91;4151569;28;20068;-66
2022/06/28 00:07:15;;;;;;;1058.57;123.10;;;;;;;28.83;43.54;101413.91;4152112;28;20382;-67
2022/06/28 00:09:17;;;;;;;441.42;40.97;;;;;;;28.83;43.19;101414.72;4151734;28;20469;-67
2022/06/28 00:11:18;;;;;;;465.25;39.05;;;;;;;28.80;43.25;101418.19;4150858;28;20038;-67
2022/06/28 00:13:20;;;;;;;1999.90;856.15;;;;;;;28.83;44.41;101417.53;4151425;28;20169;-66
2022/06/28 00:17:42;;;;;;;1725.90;224.40;;;;;;;28.84;43.41;101415.56;4151626;28;20432;-66
2022/06/28 00:19:43;;;;;;;886.60;115.38;;;;;;;28.84;43.14;101424.00;4151591;28;20420;-66
2022/06/28 00:21:48;;;;;;;516.75;52.28;;;;;;;28.79;43.05;101422.16;4151194;28;20038;-66
2022/06/28 00:23:50;;;;;;;290.45;28.27;;;;;;;28.81;43.21;101433.91;4150653;28;20050;-67
2022/06/28 00:25:51;;;;;;;436.27;44.53;;;;;;;28.78;43.44;101434.59;4150975;28;20038;-67
2022/06/28 00:27:53;;;;;;;499.10;60.33;;;;;;;28.82;45.55;101444.06;4150793;28;20041;-66
2022/06/28 00:29:58;;;;;;;738.30;102.78;;;;;;;28.84;46.61;101440.91;4151228;28;20092;-66
2022/06/28 00:31:59;;;;;;;736.00;109.75;;;;;;;28.90;46.04;101450.03;4149901;28;20076;-66
2022/06/28 00:34:01;;;;;;;772.65;120.55;;;;;;;28.90;46.48;101441.59;4151217;28;20099;-66
2022/06/28 00:36:03;;;;;;;693.75;105.28;;;;;;;28.93;45.85;101449.41;4150955;28;20030;-66
2022/06/28 00:38:05;;;;;;;760.92;120.00;;;;;;;28.96;46.31;101455.25;4150600;28;20033;-66
2022/06/28 00:40:07;;;;;;;562.47;95.70;;;;;;;28.97;46.16;101450.44;4150632;28;20050;-66
2022/06/28 00:42:09;;;;;;;787.33;128.95;;;;;;;28.95;46.11;101447.94;4150469;28;20099;-66
2022/06/28 00:44:14;;;;;;;775.75;124.20;;;;;;;28.95;46.87;101447.94;4150540;28;20045;-66
2022/06/28 00:46:15;;;;;;;681.53;115.15;;;;;;;29.00;46.60;101456.28;4150854;28;20429;-66
2022/06/28 00:48:17;;;;;;;617.58;107.63;;;;;;;29.02;46.38;101461.56;4150487;28;20049;-66
2022/06/28 00:50:19;;;;;;;649.13;109.45;;;;;;;29.02;46.62;101461.56;4150671;28;20030;-66
2022/06/28 00:52:23;;;;;;;580.25;100.32;;;;;;;29.03;46.45;101466.06;4150755;28;20095;-67
2022/06/28 00:54:29;;;;;;;463.63;78.90;;;;;;;29.04;46.55;101468.53;4151038;28;20038;-67
2022/06/28 00:56:30;;;;;;;498.30;92.63;;;;;;;29.04;46.25;101474.16;4150776;28;20473;-66
2022/06/28 00:58:32;;;;;;;562.83;95.85;;;;;;;29.06;46.63;101479.50;4150172;28;20272;-67
2022/06/28 01:00:37;;;;;;;526.78;92.93;;;;;;;29.05;46.34;101473.03;4150612;28;20057;-67
2022/06/28 01:02:44;;;;;;;462.10;81.85;;;;;;;29.05;46.44;101463.75;4150593;28;20548;-67
2022/06/28 01:04:45;;;;;;;512.50;88.97;;;;;;;29.07;46.65;101467.06;4149781;28;20088;-67
2022/06/28 01:06:47;;;;;;;442.65;80.35;;;;;;;29.07;46.80;101483.97;4150355;28;20046;-66
2022/06/28 01:08:48;;;;;;;475.38;78.40;;;;;;;29.02;46.42;101475.66;4149743;28;20088;-66
2022/06/28 01:10:52;;;;;;;452.95;81.28;;;;;;;29.04;46.76;101476.97;4150365;28;20536;-66
2022/06/28 01:12:54;;;;;;;424.92;75.80;;;;;;;29.07;46.65;101478.34;4150925;28;20030;-67
2022/06/28 01:14:55;;;;;;;445.23;75.65;;;;;;;29.08;46.74;101483.63;4151446;28;20034;-66
2022/06/28 01:17:02;;;;;;;431.25;74.57;;;;;;;29.08;46.52;101480.00;4152386;28;20497;-67
2022/06/28 01:19:10;;;;;;;464.05;77.82;;;;;;;29.10;46.68;101477.69;4152411;28;20046;-67
2022/06/28 01:21:17;;;;;;;418.35;74.07;;;;;;;29.11;46.94;101479.34;4152676;28;20037;-67
2022/06/28 01:23:20;;;;;;;440.35;75.70;;;;;;;29.10;46.64;101472.06;4153909;28;20050;-67
2022/06/28 01:25:22;;;;;;;434.25;72.88;;;;;;;29.11;46.72;101485.00;4151706;28;20042;-68
2022/06/28 01:27:24;;;;;;;385.02;67.72;;;;;;;29.12;46.71;101481.00;4152824;28;20440;-67
2022/06/28 01:29:27;;;;;;;435.17;72.05;;;;;;;29.09;46.69;101476.88;4151717;28;20041;-68
2022/06/28 01:31:29;;;;;;;397.00;65.07;;;;;;;29.13;46.87;101488.31;4152901;28;20053;-68
2022/06/28 01:33:31;;;;;;;399.60;68.53;;;;;;;29.13;46.77;101482.66;4152114;28;20045;-68
2022/06/28 01:35:33;;;;;;;423.95;67.60;;;;;;;29.14;46.85;101478.72;4152296;28;20169;-68
2022/06/28 01:37:36;;;;;;;389.77;64.57;;;;;;;28.91;46.83;101449.72;4150319;28;20050;-67
2022/06/28 01:39:37;;;;;;;378.00;61.28;;;;;;;29.15;46.76;101490.81;4151293;28;20042;-66
2022/06/28 01:41:39;;;;;;;389.88;67.05;;;;;;;29.15;46.67;101488.81;4150117;28;20038;-66
2022/06/28 01:43:41;;;;;;;380.42;62.25;;;;;;;29.13;46.80;101494.75;4149560;28;20050;-66
2022/06/28 01:45:49;;;;;;;349.05;59.35;;;;;;;29.11;46.85;101493.44;4150349;28;20092;-67
2022/06/28 01:47:50;;;;;;;378.30;61.50;;;;;;;29.11;46.91;101496.25;4150234;28;20429;-67
2022/06/28 01:49:53;;;;;;;346.17;57.58;;;;;;;29.12;46.71;101503.56;4149866;28;20104;-68
2022/06/28 01:51:55;;;;;;;364.63;59.03;;;;;;;29.11;47.06;101501.91;4148101;28;20092;-66
2022/06/28 01:53:56;;;;;;;365.42;57.85;;;;;;;29.12;46.62;101503.56;4150954;28;20103;-67
2022/06/28 01:55:58;;;;;;;321.20;55.50;;;;;;;29.12;47.13;101503.56;4151382;28;20038;-67
2022/06/28 01:58:01;;;;;;;307.40;55.42;;;;;;;29.11;46.84;101502.72;4150370;28;20049;-67
2022/06/28 02:00:04;;;;;;;;;;;;;;;29.11;47.08;101513.16;4151461;28;20050;-67
2022/06/28 02:02:06;;;;;;;332.67;56.50;;;;;;;29.12;46.93;101495.94;4151261;28;20353;-67
2022/06/28 02:04:23;;;;;;;314.85;52.55;;;;;;;29.16;46.84;101507.38;4151025;28;20445;-67
2022/06/28 02:06:25;;;;;;;299.42;50.75;;;;;;;29.18;46.83;101519.16;4150478;28;20042;-67
2022/06/28 02:08:26;;;;;;;327.88;51.45;;;;;;;29.17;47.02;101511.88;4150256;28;20084;-67
2022/06/28 02:10:28;;;;;;;284.13;50.75;;;;;;;29.16;46.87;101510.22;4150332;28;20038;-67
2022/06/28 02:12:30;;;;;;;290.27;50.63;;;;;;;29.13;46.72;101511.66;4150057;28;20058;-67
2022/06/28 02:14:32;;;;;;;288.25;51.67;;;;;;;29.11;46.73;101513.16;4148926;28;20116;-68
2022/06/28 02:16:36;;;;;;;282.38;47.30;;;;;;;29.13;46.83;101516.47;4149785;28;20029;-67
2022/06/28 02:18:37;;;;;;;285.93;49.50;;;;;;;29.12;47.07;101520.47;4150321;28;20095;-67
2022/06/28 02:20:39;;;;;;;270.73;48.13;;;;;;;29.13;46.75;101522.13;4150506;28;20374;-67
2022/06/28 02:22:40;;;;;;;284.55;53.03;;;;;;;29.07;46.96;101509.34;4149863;28;20045;-67
2022/06/28 02:24:42;;;;;;;239.80;44.30;;;;;;;29.12;46.83;101517.66;4150165;28;20063;-66
2022/06/28 02:26:45;;;;;;;254.27;47.33;;;;;;;29.12;47.01;101518.47;4149899;28;20049;-67
2022/06/28 02:28:46;;;;;;;249.60;45.40;;;;;;;29.08;47.06;101497.72;4149399;28;20100;-67
2022/06/28 02:30:48;;;;;;;241.48;46.35;;;;;;;29.11;46.79;101510.34;4150434;28;20073;-67
2022/06/28 02:32:49;;;;;;;261.02;47.03;;;;;;;29.12;46.99;101523.28;4149539;28;20041;-67
2022/06/28 02:41:50;;;;;;;215.15;42.20;;;;;;;29.11;46.97;101513.16;4150049;28;20436;-67
2022/06/28 02:43:52;;;;;;;201.05;39.67;;;;;;;29.10;47.19;101505.88;4132322;28;20100;-66
2022/06/28 02:45:56;;;;;;;213.98;40.40;;;;;;;29.09;47.14;101502.22;4132353;28;20043;-66
2022/06/28 02:47:58;;;;;;;188.77;39.50;;;;;;;29.08;47.02;101508.16;4132454;28;20046;-66
2022/06/28 02:49:59;;;;;;;206.20;38.92;;;;;;;29.09;47.03;101498.56;4132783;28;20046;-66
2022/06/28 02:52:00;;;;;;;200.40;37.88;;;;;;;29.08;46.94;101503.38;4132738;28;20067;-66
2022/06/28 02:54:02;;;;;;;208.23;41.53;;;;;;;29.08;46.95;101494.09;4132677;28;20104;-66
2022/06/28 02:56:06;;;;;;;201.80;37.85;;;;;;;29.08;47.07;101499.72;4132206;28;20038;-66
2022/06/28 02:58:10;;;;;;;203.73;38.13;;;;;;;29.03;46.99;101491.41;4132113;28;20548;-66
2022/06/28 03:00:17;;;;;;;173.83;35.63;;;;;;;29.02;46.86;101487.75;4132885;28;20047;-66
2022/06/28 03:02:19;;;;;;;190.15;37.45;;;;;;;29.07;47.05;101501.72;4133329;28;20272;-66
2022/06/28 03:04:21;;;;;;;199.07;38.25;;;;;;;29.07;46.96;101507.34;4132382;28;20437;-66
2022/06/28 03:06:22;;;;;;;180.02;35.22;;;;;;;29.05;47.01;101497.56;4131938;28;20034;-66
2022/06/28 03:08:24;;;;;;;182.02;35.78;;;;;;;29.05;46.91;101491.94;4131992;28;20525;-66
2022/06/28 03:10:25;;;;;;;187.93;37.45;;;;;;;29.05;47.29;101497.56;4131877;28;20078;-67
2022/06/28 03:12:27;;;;;;;183.02;35.33;;;;;;;29.06;47.04;101502.03;4137044;28;20440;-66
2022/06/28 03:14:28;;;;;;;168.10;33.55;;;;;;;29.06;47.06;101504.84;4148291;28;20421;-67
2022/06/28 03:16:30;;;;;;;173.63;35.53;;;;;;;29.04;47.30;101502.34;4148145;28;20046;-67
2022/06/28 03:18:31;;;;;;;162.68;33.75;;;;;;;29.04;47.12;101502.34;4147665;28;20088;-66
2022/06/28 03:20:33;;;;;;;159.45;33.63;;;;;;;29.00;46.93;101497.69;4148036;28;20092;-67
2022/06/28 03:22:34;;;;;;;157.45;31.25;;;;;;;29.04;47.02;101507.16;4146959;28;20038;-68
2022/06/28 03:24:39;;;;;;;162.82;31.33;;;;;;;29.04;47.11;101518.41;4142273;28;20089;-68
2022/06/28 03:26:43;;;;;;;158.75;32.53;;;;;;;29.01;47.01;101513.44;4132485;28;20042;-69
2022/06/28 03:28:45;;;;;;;171.45;32.83;;;;;;;29.03;46.97;101522.41;4131726;28;20085;-67
2022/06/28 03:30:49;;;;;;;131.32;30.60;;;;;;;29.00;46.98;101517.41;4131779;28;20042;-68
2022/06/28 03:32:54;;;;;;;147.25;32.00;;;;;;;29.01;47.20;101513.44;4132491;28;20042;-68
2022/06/28 03:34:55;;;;;;;154.23;30.83;;;;;;;29.03;46.98;101522.41;4132112;28;20034;-68
2022/06/28 03:36:56;;;;;;;154.63;31.08;;;;;;;29.04;47.30;101515.59;4131983;28;20109;-66
2022/06/28 03:38:58;;;;;;;158.43;31.92;;;;;;;29.04;46.71;101524.06;4132258;28;20042;-68
2022/06/28 03:40:59;;;;;;;136.63;29.80;;;;;;;29.00;47.05;101518.25;4132096;28;20039;-67
2022/06/28 03:43:01;;;;;;;142.05;28.85;;;;;;;29.04;47.17;101521.25;4132773;28;20100;-68
2022/06/28 03:45:03;;;;;;;137.48;29.17;;;;;;;29.04;47.00;101521.25;4132629;28;20042;-67
2022/06/28 03:47:05;;;;;;;123.60;27.77;;;;;;;29.03;47.17;101528.03;4132632;28;20445;-67
2022/06/28 03:49:06;;;;;;;148.10;28.20;;;;;;;28.97;47.10;101512.44;4131911;28;20034;-67
2022/06/28 03:51:08;;;;;;;140.07;27.00;;;;;;;29.04;47.06;101526.88;4131815;28;20042;-67
2022/06/28 03:53:12;;;;;;;130.50;29.20;;;;;;;29.02;46.99;101515.09;4132759;28;20433;-67
2022/06/28 03:55:13;;;;;;;119.15;27.67;;;;;;;29.02;47.38;101523.56;4133110;28;20046;-68
2022/06/28 03:57:14;;;;;;;125.20;26.98;;;;;;;29.03;47.20;101525.22;4133151;28;20038;-67
2022/06/28 03:59:16;;;;;;;116.55;26.73;;;;;;;29.00;47.06;101529.53;4132179;28;20116;-67
2022/06/28 04:01:17;;;;;;;114.13;25.05;;;;;;;29.00;47.06;101528.66;4132729;28;20486;-67
2022/06/28 04:03:19;;;;;;;112.53;26.23;;;;;;;29.02;47.17;101530.03;4132366;28;20093;-67
2022/06/28 04:05:24;;;;;;;113.18;26.02;;;;;;;29.02;47.17;101520.75;4133564;28;20441;-67
2022/06/28 04:07:25;;;;;;;109.93;26.45;;;;;;;28.98;47.06;101526.19;4132213;28;20034;-67
2022/06/28 04:09:26;;;;;;;105.75;24.90;;;;;;;29.00;47.08;101528.66;4131240;28;20363;-67
2022/06/28 04:11:28;;;;;;;105.22;24.67;;;;;;;29.01;47.27;101521.91;4132275;28;20038;-67
2022/06/28 04:13:32;;;;;;;104.18;25.38;;;;;;;29.02;47.21;101526.38;4132280;28;20046;-68
2022/06/28 04:15:35;;;;;;;114.93;26.00;;;;;;;29.02;47.35;101537.66;4132244;28;20055;-68
2022/06/28 04:17:39;;;;;;;95.25;23.25;;;;;;;29.01;47.13;101530.34;4131726;28;20043;-67
2022/06/28 04:19:40;;;;;;;85.18;22.85;;;;;;;29.02;47.28;101532.00;4132383;28;20078;-67
2022/06/28 04:21:42;;;;;;;101.60;23.85;;;;;;;29.02;47.11;101534.84;4132277;28;20422;-68
2022/06/28 04:23:44;;;;;;;108.68;24.25;;;;;;;28.98;47.21;101523.38;4132028;28;20077;-67
2022/06/28 04:25:45;;;;;;;94.90;23.00;;;;;;;29.01;47.24;101536.00;4132447;28;20469;-66
2022/06/28 04:27:49;;;;;;;94.13;24.58;;;;;;;29.01;47.31;101530.34;4131838;28;20093;-68
2022/06/28 04:29:53;;;;;;;95.32;23.40;;;;;;;29.00;47.09;101534.31;4132380;28;20046;-67
2022/06/28 04:31:55;;;;;;;93.05;21.85;;;;;;;29.01;47.22;101536.00;4132014;28;20035;-67
2022/06/28 04:33:56;;;;;;;81.22;20.63;;;;;;;29.01;47.12;101538.81;4131953;28;20042;-68
2022/06/28 04:35:58;;;;;;;83.25;21.52;;;;;;;29.01;47.18;101541.63;4132245;28;20482;-68
2022/06/28 04:38:01;;;;;;;95.82;22.10;;;;;;;28.96;47.23;101534.16;4132034;28;20101;-66
2022/06/28 04:40:02;;;;;;;94.40;22.58;;;;;;;29.00;47.09;101543.63;4133101;28;20034;-67
2022/06/28 04:42:05;;;;;;;77.78;20.27;;;;;;;28.99;47.09;101541.09;4134937;28;20085;-67
2022/06/28 04:44:06;;;;;;;88.55;22.10;;;;;;;28.99;47.09;101550.38;4134691;28;20039;-66
2022/06/28 04:46:08;;;;;;;89.57;21.75;;;;;;;28.94;47.24;101547.66;4135012;28;20057;-66
2022/06/28 04:48:12;;;;;;;83.65;21.00;;;;;;;28.99;47.32;101558.00;4134714;28;20042;-67
2022/06/28 04:50:13;;;;;;;85.80;21.67;;;;;;;28.95;47.17;101542.88;4135227;28;20552;-67
2022/06/28 04:52:18;;;;;;;74.20;20.88;;;;;;;28.98;47.29;101553.53;4134254;28;20042;-67
2022/06/28 04:54:19;;;;;;;89.40;21.52;;;;;;;28.99;47.15;101561.66;4135033;28;20097;-67
2022/06/28 04:56:22;;;;;;;75.07;19.77;;;;;;;28.98;47.02;101565.63;4135187;28;20034;-68
2022/06/28 04:58:24;;;;;;;71.18;20.13;;;;;;;28.97;47.13;101558.34;4134259;28;20042;-66
2022/06/28 05:00:27;;;;;;;81.78;18.90;;;;;;;28.97;47.10;101557.50;4134650;28;20054;-67
2022/06/28 05:02:28;;;;;;;76.65;20.55;;;;;;;28.96;47.24;101561.50;4134397;28;20054;-67
2022/06/28 05:04:30;;;;;;;82.38;18.80;;;;;;;28.97;47.17;101565.97;4134689;28;20045;-66
2022/06/28 05:06:34;;;;;;;71.18;19.95;;;;;;;28.97;47.14;101568.78;4134522;28;20042;-67
2022/06/28 05:08:41;;;;;;;65.45;18.08;;;;;;;28.96;47.29;101565.13;4136645;28;20030;-67
2022/06/28 05:10:42;;;;;;;74.72;18.98;;;;;;;28.95;47.16;101568.22;4135270;28;20441;-66
2022/06/28 05:12:45;;;;;;;69.97;18.48;;;;;;;28.90;47.01;101557.09;4134433;28;20473;-66
2022/06/28 05:14:46;;;;;;;69.93;18.60;;;;;;;28.96;47.35;101567.13;4134272;28;20101;-66
2022/06/28 05:16:47;;;;;;;67.32;19.77;;;;;;;28.97;46.97;101568.78;4135030;28;20077;-66
2022/06/28 05:18:49;;;;;;;60.92;17.00;;;;;;;28.97;46.96;101568.78;4134831;28;20100;-66
2022/06/28 05:20:50;;;;;;;69.10;17.15;;;;;;;28.96;47.09;101567.94;4134121;28;20493;-66
2022/06/28 05:22:51;;;;;;;59.55;16.70;;;;;;;28.72;47.42;101528.78;4134718;28;20061;-67
2022/06/28 05:24:53;;;;;;;70.88;18.85;;;;;;;28.96;47.15;101572.75;4133700;28;20038;-67
2022/06/28 05:26:54;;;;;;;56.35;16.75;;;;;;;28.97;47.01;101580.06;4134597;28;20046;-67
2022/06/28 05:28:56;;;;;;;56.20;17.13;;;;;;;28.97;47.24;101574.41;4134400;28;20433;-66
2022/06/28 05:30:57;;;;;;;54.63;17.67;;;;;;;28.96;46.97;101579.22;4134128;28;20038;-66
2022/06/28 05:32:59;;;;;;;53.03;16.92;;;;;;;28.96;47.17;101579.22;4134330;28;20097;-67
2022/06/28 05:35:04;;;;;;;57.58;16.83;;;;;;;28.88;46.98;101566.69;4134121;28;20042;-67
2022/06/28 05:37:07;;;;;;;58.80;15.38;;;;;;;28.96;47.23;101586.84;4133765;28;20054;-67
2022/06/28 05:39:09;;;;;;;59.05;18.13;;;;;;;28.95;47.23;101583.16;4134058;28;20110;-67
2022/06/28 05:41:10;;;;;;;55.72;16.23;;;;;;;28.95;47.21;101591.63;4134125;28;20536;-67
2022/06/28 05:43:12;;;;;;;49.60;15.63;;;;;;;28.95;47.05;101585.13;4134361;28;20034;-67
2022/06/28 05:45:13;;;;;;;53.65;15.68;;;;;;;28.93;47.08;101585.44;4133714;28;20046;-66
2022/06/28 05:47:14;;;;;;;56.17;14.35;;;;;;;28.96;47.07;101586.84;4134089;28;20042;-67
2022/06/28 05:49:21;;;;;;;50.83;15.85;;;;;;;28.96;46.97;101595.28;4133662;28;20441;-67
2022/06/28 05:51:22;;;;;;;49.70;14.90;;;;;;;28.95;47.08;101600.06;4133155;28;20093;-67
2022/06/28 05:53:26;;;;;;;41.42;13.25;;;;;;;28.96;47.07;101604.56;4133772;28;20030;-67
2022/06/28 05:55:28;;;;;;;54.47;15.40;;;;;;;28.88;46.92;101594.88;4133821;28;20426;-67
2022/06/28 05:57:30;;;;;;;61.45;14.95;;;;;;;28.94;47.28;101604.00;4133523;28;20096;-67
2022/06/28 05:59:32;;;;;;;50.20;14.68;;;;;;;28.94;47.23;101618.09;4133369;28;20042;-67
2022/06/28 06:01:33;;;;;;;48.22;14.32;;;;;;;28.94;47.16;101608.81;4133812;28;20050;-67
2022/06/28 06:03:35;;;;;;;44.47;14.43;;;;;;;28.93;46.93;101615.63;4133760;28;20086;-67
2022/06/28 06:05:39;;;;;;;47.40;14.23;;;;;;;28.93;46.91;101616.44;4133745;28;20097;-67
2022/06/28 06:07:40;;;;;;;48.72;14.40;;;;;;;28.93;47.21;101629.69;4133321;28;20166;-67
2022/06/28 06:09:42;;;;;;;48.63;13.60;;;;;;;28.92;47.20;101639.31;4133587;28;20046;-67
2022/06/28 06:11:44;;;;;;;46.13;12.63;;;;;;;28.92;47.16;101634.50;4133472;28;20486;-67
2022/06/28 06:13:45;;;;;;;49.55;13.80;;;;;;;28.92;47.25;101631.69;4133455;28;20514;-67
2022/06/28 06:15:47;;;;;;;43.90;12.82;;;;;;;28.92;47.14;101640.13;4133649;28;20050;-67
2022/06/28 06:17:51;;;;;;;39.75;13.30;;;;;;;28.91;47.12;101637.63;4133284;28;20093;-67
2022/06/28 06:19:52;;;;;;;33.72;12.43;;;;;;;28.91;47.15;101643.25;4133403;28;20038;-67
2022/06/28 06:21:56;;;;;;;36.53;11.63;;;;;;;28.91;47.12;101632.84;4133347;28;20042;-67
2022/06/28 06:23:58;;;;;;;45.72;12.38;;;;;;;28.92;47.24;101639.31;4133315;28;20042;-67
2022/06/28 06:25:59;;;;;;;37.30;12.85;;;;;;;28.91;46.99;101635.66;4133085;28;20034;-67
2022/06/28 06:28:00;;;;;;;47.80;12.85;;;;;;;28.91;47.08;101651.72;4132896;28;20050;-67
2022/06/28 06:30:06;;;;;;;35.63;11.98;;;;;;;28.91;47.00;101657.34;4133206;28;20042;-67
2022/06/28 06:32:08;;;;;;;37.10;12.00;;;;;;;28.90;47.28;101650.88;4133148;28;20445;-67
2022/06/28 06:34:09;;;;;;;38.42;12.30;;;;;;;28.91;47.18;101654.53;4133181;28;20042;-67
2022/06/28 06:36:11;;;;;;;36.38;12.20;;;;;;;28.91;47.01;101660.16;4133117;28;20038;-67
2022/06/28 06:38:12;;;;;;;38.28;13.27;;;;;;;28.90;47.28;101664.13;4132967;28;20117;-67
2022/06/28 06:40:16;;;;;;;34.60;12.10;;;;;;;28.88;47.04;101656.84;4133024;28;20117;-67
2022/06/28 06:42:18;;;;;;;34.22;11.02;;;;;;;28.86;46.95;101647.03;4133016;28;20359;-67
2022/06/28 06:44:19;;;;;;;32.08;11.07;;;;;;;28.90;47.13;101658.50;4133100;28;20052;-67
2022/06/28 06:46:23;;;;;;;34.80;11.70;;;;;;;28.85;47.10;101649.03;4133128;28;20042;-67
2022/06/28 06:48:24;;;;;;;28.10;11.93;;;;;;;28.87;47.00;101660.81;4132299;28;20042;-67
2022/06/28 06:50:29;;;;;;;31.63;11.15;;;;;;;28.88;47.01;101656.84;4132451;28;20047;-67
2022/06/28 06:52:30;;;;;;;32.55;10.45;;;;;;;28.85;47.15;101665.91;4132928;28;20477;-67
2022/06/28 06:54:32;;;;;;;28.88;10.90;;;;;;;28.87;46.96;101672.09;4132581;28;20038;-67
2022/06/28 06:56:33;;;;;;;27.75;10.07;;;;;;;28.87;46.99;101663.63;4132851;28;20046;-68
2022/06/28 06:58:38;;;;;;;32.05;11.30;;;;;;;28.80;47.25;101660.41;4132335;28;20505;-66
2022/06/28 07:00:40;;;;;;;32.50;11.40;;;;;;;28.86;46.95;101678.88;4134991;28;20042;-68
2022/06/28 07:02:44;;;;;;;34.45;11.05;;;;;;;28.83;47.14;101665.41;4132295;28;20034;-66
2022/06/28 07:04:51;;;;;;;24.65;9.65;;;;;;;28.86;46.88;101675.19;4132767;28;20050;-66
2022/06/28 07:06:55;;;;;;;22.70;9.18;;;;;;;28.79;47.01;101670.03;4132310;28;20548;-66
2022/06/28 07:08:59;;;;;;;27.83;9.57;;;;;;;28.82;47.10;101680.66;4131793;28;20077;-66
2022/06/28 07:11:06;;;;;;;28.13;9.98;;;;;;;28.84;46.97;101677.50;4131622;28;20046;-66
2022/06/28 07:13:08;;;;;;;30.67;10.35;;;;;;;28.85;47.01;101685.63;4132393;28;20089;-66
2022/06/28 07:15:09;;;;;;;21.23;8.65;;;;;;;28.84;47.03;101683.97;4132035;28;20425;-67
2022/06/28 07:17:11;;;;;;;33.40;9.90;;;;;;;28.84;46.90;101686.78;4132609;28;20042;-67
2022/06/28 07:19:13;;;;;;;23.35;8.77;;;;;;;28.83;46.83;101696.41;4132794;28;20046;-66
2022/06/28 07:21:15;;;;;;;28.48;8.63;;;;;;;28.83;46.94;101698.41;4131335;28;20042;-67
2022/06/28 07:23:16;;;;;;;25.95;9.60;;;;;;;28.76;46.94;101687.53;4132334;28;20038;-67
2022/06/28 07:25:23;;;;;;;28.20;10.80;;;;;;;28.82;47.04;101708.84;4132177;28;20108;-67
2022/06/28 07:27:25;;;;;;;18.52;8.15;;;;;;;28.82;46.75;101706.00;4132373;28;20101;-67
2022/06/28 07:29:29;;;;;;;23.42;8.27;;;;;;;28.83;46.98;101693.59;4131788;28;20116;-66
2022/06/28 07:31:52;;;;;;;23.83;8.50;;;;;;;28.79;47.13;101692.56;4132081;28;20038;-67
2022/06/28 07:33:52;;;;;;;21.67;8.25;;;;;;;28.81;46.77;101701.50;4131803;28;20038;-66
2022/06/28 07:35:55;;;;;;;23.63;7.53;;;;;;;28.82;46.82;101700.38;4131969;28;20482;-66
2022/06/28 07:37:56;;;;;;;27.02;7.72;;;;;;;28.82;46.81;101708.00;4132199;28;20042;-66
2022/06/28 07:39:58;;;;;;;22.02;8.50;;;;;;;28.82;46.78;101713.63;4132143;28;20042;-67
2022/06/28 07:42:02;;;;;;;23.98;8.80;;;;;;;28.80;46.67;101711.13;4132053;28;20422;-66
2022/06/28 07:44:06;;;;;;;22.52;8.10;;;;;;;28.81;46.74;101709.97;4132411;28;20038;-67
2022/06/28 07:46:10;;;;;;;22.02;7.90;;;;;;;28.81;46.81;101715.59;4132128;28;20034;-67
2022/06/28 07:48:12;;;;;;;20.60;8.20;;;;;;;28.82;46.57;101722.91;4131342;28;20563;-67
2022/06/28 07:52:37;;;;;;;19.02;7.88;;;;;;;28.80;46.72;101728.00;4132609;28;20112;-66
2022/06/28 07:54:39;;;;;;;19.52;7.70;;;;;;;28.79;46.78;101726.34;4131961;28;20042;-67
2022/06/28 07:56:43;;;;;;;22.10;7.82;;;;;;;28.81;46.83;101740.94;4132299;28;20038;-67
2022/06/28 07:58:44;;;;;;;18.25;7.90;;;;;;;28.74;46.86;101722.81;4131518;28;20042;-67
2022/06/28 08:00:45;;;;;;;19.20;6.75;;;;;;;28.79;46.80;101737.63;4132200;28;20070;-67
2022/06/28 08:02:47;;;;;;;19.75;6.53;;;;;;;28.79;46.69;101740.44;4132370;28;20046;-67
2022/06/28 08:04:49;;;;;;;17.23;7.13;;;;;;;28.77;46.49;101741.88;4131437;28;20093;-67
2022/06/28 08:06:50;;;;;;;17.38;7.57;;;;;;;28.77;46.72;101745.56;4132193;28;20070;-67
2022/06/28 08:08:52;;;;;;;18.15;6.65;;;;;;;28.76;46.68;101749.50;4131337;28;20109;-67
2022/06/28 08:10:53;;;;;;;18.73;7.43;;;;;;;28.76;46.79;101749.50;4131827;28;20466;-67
2022/06/28 08:12:58;;;;;;;18.58;7.13;;;;;;;28.75;46.72;101747.84;4131846;28;20125;-67
2022/06/28 08:14:59;;;;;;;17.92;6.57;;;;;;;28.76;46.71;101759.94;4133695;28;20100;-67
2022/06/28 08:17:02;;;;;;;15.15;6.55;;;;;;;28.71;46.69;101757.25;4134682;28;20038;-67
2022/06/28 08:19:04;;;;;;;18.85;6.90;;;;;;;28.75;46.66;101761.94;4134528;28;20097;-66
2022/06/28 08:21:06;;;;;;;18.67;6.93;;;;;;;28.72;46.71;101754.09;4135228;28;20101;-67
2022/06/28 08:23:07;;;;;;;18.13;6.75;;;;;;;28.75;46.57;101761.09;4134961;28;20055;-66
2022/06/28 08:25:09;;;;;;;21.27;7.13;;;;;;;28.74;46.82;101756.63;4135188;28;20042;-67
2022/06/28 08:27:19;;;;;;;14.05;6.25;;;;;;;28.70;46.68;101758.41;4135095;28;20050;-66
2022/06/28 08:29:21;;;;;;;14.77;5.75;;;;;;;28.75;46.67;101763.91;4134444;28;20047;-67
2022/06/28 08:31:23;;;;;;;13.98;5.97;;;;;;;28.74;46.76;101767.88;4134745;28;20057;-66
2022/06/28 08:33:26;;;;;;;16.95;5.90;;;;;;;28.72;46.71;101758.91;4134851;28;20454;-67
2022/06/28 08:35:30;;;;;;;13.77;6.10;;;;;;;28.73;46.82;101766.22;4135084;28;20042;-67
2022/06/28 08:37:40;;;;;;;16.83;6.40;;;;;;;28.68;46.75;101764.31;4135021;28;20486;-67
2022/06/28 08:39:44;;;;;;;14.57;6.70;;;;;;;28.71;46.37;101771.31;4134705;28;20093;-68
2022/06/28 08:41:46;;;;;;;13.85;6.45;;;;;;;28.71;46.85;101771.31;4135002;28;20042;-67
2022/06/28 08:43:50;;;;;;;14.45;5.68;;;;;;;28.71;46.78;101780.59;4134526;28;20065;-68
2022/06/28 08:45:53;;;;;;;14.23;5.55;;;;;;;28.73;46.68;101783.97;4134652;28;20042;-67
2022/06/28 08:47:56;;;;;;;12.30;5.40;;;;;;;28.72;46.63;101787.91;4134185;28;20054;-67
2022/06/28 08:50:03;;;;;;;13.48;5.47;;;;;;;28.72;46.63;101787.91;4134481;28;20112;-67
2022/06/28 08:52:09;;;;;;;17.40;6.10;;;;;;;28.71;46.60;101791.88;4134397;28;20046;-67
2022/06/28 08:54:12;;;;;;;13.77;5.50;;;;;;;28.72;46.38;101798.34;4134792;28;20042;-67
2022/06/28 08:56:15;;;;;;;15.05;5.85;;;;;;;28.71;46.40;101799.50;4134477;28;20038;-67
2022/06/28 08:58:17;;;;;;;11.98;5.80;;;;;;;28.70;46.60;101795.00;4133969;28;20442;-67
2022/06/28 09:00:18;;;;;;;17.55;5.90;;;;;;;28.69;46.64;101804.63;4135431;28;20038;-67
2022/06/28 09:02:20;;;;;;;14.48;6.07;;;;;;;28.67;46.66;101801.25;4134610;28;20077;-67
2022/06/28 09:04:21;;;;;;;13.40;5.32;;;;;;;28.48;46.59;101765.59;4134040;28;20446;-68
2022/06/28 09:06:28;;;;;;;14.43;4.72;;;;;;;28.66;46.42;101806.06;4134330;28;20109;-67
2022/06/28 09:08:30;;;;;;;11.18;4.80;;;;;;;28.69;46.53;101813.91;4133325;28;20104;-67
2022/06/28 09:10:31;;;;;;;11.05;5.20;;;;;;;28.69;46.38;101816.72;4134721;28;20089;-68
2022/06/28 09:12:35;;;;;;;10.85;4.90;;;;;;;28.68;46.44;101820.66;4134684;28;20042;-69
2022/06/28 09:14:37;;;;;;;10.68;5.70;;;;;;;28.69;46.65;101821.50;4134487;28;20097;-67
2022/06/28 09:16:38;;;;;;;11.13;5.30;;;;;;;28.68;46.45;101829.09;4134379;28;20097;-67
2022/06/28 09:18:40;;;;;;;12.82;4.53;;;;;;;28.68;46.52;101826.28;4134132;28;20046;-67
2022/06/28 09:20:43;;;;;;;11.15;5.45;;;;;;;28.66;46.50;101834.22;4133944;28;20042;-67
2022/06/28 09:22:50;;;;;;;11.27;4.82;;;;;;;28.62;46.44;101828.38;4134377;28;20042;-68
2022/06/28 09:24:51;;;;;;;10.85;4.50;;;;;;;28.67;46.42;101835.06;4133923;28;20112;-68
2022/06/28 09:26:54;;;;;;;8.65;4.20;;;;;;;28.67;46.31;101840.69;4133270;28;20038;-68